Flight Track Log - Related Links

Times and Time Zones

All times are in EDT time to prevent confusion due to time zone crossing. See the N1250V flight status page for this flight to view local times or setup timezone preferences in your user account.

Time Position Orientation Groundspeed Altitude Reporting Facility
EDT Latitude Longitude Course Direction KTS MPH feet Rate Location/Type
Wed 09:46:37 AM 39.0833 -84.4167 111° Southeast 146 168 1,200  Level Cincinnati TRACON
Wed 09:47:31 AM 39.0333 -84.4333 195° South 211 243 2,400 1,526 Climbing Cincinnati TRACON
Wed 09:48:31 AM 39.0000 -84.4000 142° Southeast 223 257 4,100 2,056 Climbing Cincinnati TRACON
Wed 09:49:19 AM 38.9956 -84.3444 96° East 210 242 6,100 2,455 Climbing Indianapolis Center
Wed 09:50:21 AM 39.0425 -84.3117 28° Northeast 218 251 8,600 2,129 Climbing Indianapolis Center
Wed 09:51:23 AM 39.1025 -84.3142 358° North 215 247 10,500 1,742 Climbing Indianapolis Center
Wed 09:52:00 AM 39.1033 -84.4186 111° Southeast  Level Estimated
Wed 09:52:25 AM 39.1792 -84.3222 355° North 243 280 12,200  Level Indianapolis Center
Wed 09:53:27 AM 39.2403 -84.3264 357° North 254 292 13,700 1,548 Climbing Indianapolis Center
Wed 09:54:29 AM 39.3267 -84.3333 356° North 259 298 15,400 1,500 Climbing Indianapolis Center
Wed 09:55:31 AM 39.4000 -84.3408 355° North 263 303 16,800 774 Climbing Indianapolis Center
Wed 09:56:33 AM 39.4792 -84.3475 356° North 279 321 17,000 97 Climbing Indianapolis Center
Wed 09:57:35 AM 39.5658 -84.3558 356° North 306 352 17,000  Level Indianapolis Center
Wed 09:58:37 AM 39.6567 -84.3636 356° North 323 372 17,000  Level Indianapolis Center
Wed 09:59:39 AM 39.7675 -84.3553 North 343 395 17,000  Level Indianapolis Center
Wed 10:00:41 AM 39.8308 -84.2631 48° Northeast 348 400 17,000  Level Indianapolis Center
Wed 10:01:44 AM 39.8628 -84.1450 71° East 350 403 17,000  Level Indianapolis Center
Wed 10:02:46 AM 39.8822 -84.0250 78° East 341 392 17,000 -290 Level Indianapolis Center
Wed 10:03:48 AM 39.8883 -83.9014 86° East 348 400 16,400 -1,355 Descending Indianapolis Center
Wed 10:04:50 AM 39.8250 -83.7936 127° Southeast 345 397 14,200 -1,935 Descending Indianapolis Center
Wed 10:05:52 AM 39.7494 -83.7803 172° South 294 338 12,400 -1,500 Descending Indianapolis Center
Wed 10:06:54 AM 39.6869 -83.8481 220° Southwest 291 335 11,100 -677 Descending Indianapolis Center
Wed 10:07:56 AM 39.6242 -83.9122 218° Southwest 283 326 11,000 -48 Descending Indianapolis Center
Wed 10:08:58 AM 39.5672 -83.9736 220° Southwest 274 315 11,000 -194 Level Indianapolis Center
Wed 10:10:00 AM 39.5081 -84.0333 218° Southwest 269 310 10,600 -774 Descending Indianapolis Center
Wed 10:11:02 AM 39.4411 -84.1236 226° Southwest 287 330 9,400 -1,403 Descending Indianapolis Center
Wed 10:12:04 AM 39.4011 -84.2069 238° Southwest 279 321 7,700 -1,452 Descending Indianapolis Center
Wed 10:13:06 AM 39.3689 -84.2869 243° Southwest 270 311 6,400 -1,258 Descending Indianapolis Center
Wed 10:14:08 AM 39.3717 -84.3639 273° West 231 266 5,100 -936 Descending Indianapolis Center
Wed 10:16:44 AM 39.2500 -84.3500 175° South 166 191 3,000 -722 Descending Cincinnati TRACON
Wed 10:17:44 AM 39.2000 -84.3667 194° South 164 189 2,500 -588 Descending Cincinnati TRACON
Wed 10:18:26 AM 39.1833 -84.3667 180° South 124 143 2,000 -722 Descending Cincinnati TRACON
Wed 10:19:32 AM 39.1500 -84.4000 218° Southwest 128 147 1,200 -727 Descending Cincinnati TRACON
Wed 10:21:00 AM 39.1033 -84.4186 218° Southwest  Level Estimated

Login

Don't have an account? Register now (free) for customized features, flight alerts, and more!